createdAt,value
2022-10-02T00:01:54.971Z,40.65
2022-10-02T00:04:33.209Z,56.88
2022-10-02T00:07:05.476Z,49.75
2022-10-02T00:09:42.008Z,74.80
2022-10-02T00:12:12.668Z,197.85
2022-10-02T00:14:42.666Z,235.05
2022-10-02T00:17:19.000Z,172.63
2022-10-02T00:19:45.941Z,289.30
2022-10-02T00:22:13.022Z,167.98
2022-10-02T00:24:57.015Z,112.95
2022-10-02T00:27:47.238Z,136.02
2022-10-02T00:30:17.889Z,79.85
2022-10-02T00:32:58.675Z,49.35
2022-10-02T00:35:48.591Z,46.00
2022-10-02T00:38:34.887Z,39.70
2022-10-02T00:41:17.043Z,33.25
2022-10-02T00:43:56.558Z,77.05
2022-10-02T00:46:35.610Z,56.30
2022-10-02T00:49:24.707Z,27.02
2022-10-02T00:52:03.298Z,41.90
2022-10-02T00:54:47.951Z,182.50
2022-10-02T00:57:29.346Z,32.05
2022-10-02T01:00:09.181Z,29.30
2022-10-02T01:02:36.312Z,32.92
2022-10-02T01:05:05.661Z,29.25
2022-10-02T01:07:33.423Z,26.27
2022-10-02T01:10:00.332Z,27.67
2022-10-02T01:12:27.342Z,28.60
2022-10-02T01:14:54.245Z,24.25
2022-10-02T01:17:28.557Z,32.58
2022-10-02T01:19:57.035Z,18.70
2022-10-02T01:22:34.769Z,20.58
2022-10-02T01:25:05.468Z,15.27
2022-10-02T01:27:38.803Z,15.07
2022-10-02T01:30:09.600Z,17.13
2022-10-02T01:32:41.727Z,14.85
2022-10-02T01:35:09.274Z,24.02
2022-10-02T01:37:39.792Z,24.40
2022-10-02T01:40:10.559Z,23.17
2022-10-02T01:42:39.430Z,24.15
2022-10-02T01:45:08.687Z,24.25
2022-10-02T01:47:42.237Z,16.98
2022-10-02T01:50:26.030Z,20.40
2022-10-02T01:53:23.863Z,20.90
2022-10-02T01:56:01.362Z,19.50
2022-10-02T01:58:38.281Z,24.42
2022-10-02T02:01:28.008Z,21.48
2022-10-02T02:03:55.810Z,22.52
2022-10-02T02:06:57.499Z,19.95
2022-10-02T02:09:45.685Z,16.70
2022-10-02T02:12:21.143Z,20.23
2022-10-02T02:14:53.474Z,17.52
2022-10-02T02:17:56.463Z,15.43
2022-10-02T02:20:29.070Z,10.88
2022-10-02T02:23:03.734Z,12.77
2022-10-02T02:25:34.496Z,16.00
2022-10-02T02:28:06.554Z,14.13
2022-10-02T02:30:35.944Z,17.75
2022-10-02T02:33:10.793Z,10.52
2022-10-02T02:35:44.207Z,10.75
2022-10-02T02:38:25.858Z,9.88
2022-10-02T02:40:53.031Z,13.00
2022-10-02T02:43:27.576Z,10.38
2022-10-02T02:46:01.820Z,12.52
2022-10-02T02:48:39.551Z,7.07
2022-10-02T02:51:30.735Z,12.40
2022-10-02T02:54:02.466Z,6.70
2022-10-02T02:56:32.183Z,16.52
2022-10-02T02:59:10.228Z,19.92
2022-10-02T03:01:37.506Z,27.63
2022-10-02T03:04:04.683Z,20.08
2022-10-02T03:06:39.145Z,17.55
2022-10-02T03:09:11.413Z,8.07
2022-10-02T03:12:15.119Z,8.07
2022-10-02T03:15:06.754Z,6.78
2022-10-02T03:18:03.942Z,3.75
2022-10-02T03:20:48.494Z,3.40
2022-10-02T03:23:54.039Z,7.22
2022-10-02T03:26:29.346Z,5.63
2022-10-02T03:29:00.490Z,5.47
2022-10-02T03:31:30.983Z,10.57
2022-10-02T03:34:00.635Z,4.25
2022-10-02T03:36:27.974Z,5.80
2022-10-02T03:39:23.568Z,5.55
2022-10-02T03:41:48.144Z,4.88
2022-10-02T03:44:15.001Z,5.72
2022-10-02T03:46:41.939Z,6.72
2022-10-02T03:49:08.861Z,5.72
2022-10-02T03:51:35.764Z,5.32
2022-10-02T03:54:03.696Z,4.25
2022-10-02T03:56:41.511Z,3.22
2022-10-02T03:59:16.395Z,5.20
2022-10-02T04:01:49.122Z,3.65
2022-10-02T04:04:27.081Z,2.70
2022-10-02T04:07:01.114Z,4.10
2022-10-02T04:09:47.420Z,2.45
2022-10-02T04:12:21.362Z,6.47
2022-10-02T04:15:00.554Z,2.45
2022-10-02T04:17:44.395Z,5.57
2022-10-02T04:20:15.345Z,5.47
2022-10-02T04:23:01.513Z,2.35
2022-10-02T04:25:34.625Z,6.15
2022-10-02T04:28:14.498Z,4.75
2022-10-02T04:30:41.942Z,2.70
2022-10-02T04:33:19.007Z,3.33
2022-10-02T04:38:20.998Z,4.30
2022-10-02T04:40:53.614Z,2.88
2022-10-02T04:43:39.240Z,5.65
2022-10-02T04:46:24.466Z,3.13
2022-10-02T04:49:06.254Z,4.00
2022-10-02T04:52:01.807Z,4.40
2022-10-02T04:54:56.026Z,5.35
2022-10-02T04:57:49.803Z,12.98
2022-10-02T05:00:20.899Z,9.27
2022-10-02T05:03:25.020Z,5.47
2022-10-02T05:06:23.817Z,8.45
2022-10-02T05:09:12.097Z,8.95
2022-10-02T05:11:51.053Z,6.43
2022-10-02T05:14:47.327Z,7.05
2022-10-02T05:17:32.038Z,5.93
2022-10-02T05:20:35.523Z,5.53
2022-10-02T05:23:33.197Z,5.78
2022-10-02T05:26:08.582Z,4.57
2022-10-02T05:28:40.185Z,6.53
2022-10-02T05:31:18.098Z,3.85
2022-10-02T05:34:02.623Z,6.65
2022-10-02T05:36:56.019Z,4.45
2022-10-02T05:39:34.090Z,2.75
2022-10-02T05:42:21.260Z,3.15
2022-10-02T05:44:54.092Z,6.20
2022-10-02T05:47:35.607Z,4.22
2022-10-02T05:50:29.825Z,10.65
2022-10-02T05:53:21.271Z,12.50
2022-10-02T05:56:22.154Z,11.85
2022-10-02T05:58:59.147Z,6.43
2022-10-02T06:01:32.235Z,2.65
2022-10-02T06:04:17.709Z,2.45
2022-10-02T06:06:54.313Z,2.75
2022-10-02T06:09:31.499Z,3.38
2022-10-02T06:12:04.861Z,4.88
2022-10-02T06:14:40.799Z,4.03
2022-10-02T06:17:13.287Z,3.03
2022-10-02T06:19:54.314Z,3.97
2022-10-02T06:22:28.527Z,1.58
2022-10-02T06:25:03.202Z,5.60
2022-10-02T06:27:52.010Z,7.15
2022-10-02T06:30:20.110Z,9.82
2022-10-02T06:33:09.650Z,6.38
2022-10-02T06:36:24.009Z,4.68
2022-10-02T06:39:31.390Z,2.63
2022-10-02T06:42:16.401Z,4.80
2022-10-02T06:45:16.049Z,12.23
2022-10-02T06:48:05.973Z,5.57
2022-10-02T06:50:44.588Z,3.85
2022-10-02T06:53:45.602Z,4.75
2022-10-02T06:56:31.255Z,7.20
2022-10-02T06:59:16.466Z,6.13
2022-10-02T07:02:02.096Z,11.05
2022-10-02T07:04:55.529Z,9.20
2022-10-02T07:07:31.398Z,10.05
2022-10-02T07:10:26.234Z,8.07
2022-10-02T07:12:55.860Z,8.32
2022-10-02T07:15:35.805Z,8.63
2022-10-02T07:18:19.839Z,3.72
2022-10-02T07:20:53.006Z,7.30
2022-10-02T07:23:28.770Z,4.95
2022-10-02T07:26:11.519Z,4.63
2022-10-02T07:28:46.703Z,7.20
2022-10-02T07:31:19.150Z,8.02
2022-10-02T07:34:19.899Z,4.18
2022-10-02T07:37:09.759Z,4.85
2022-10-02T07:39:46.092Z,6.97
2022-10-02T07:42:35.226Z,7.38
2022-10-02T07:45:34.541Z,6.03
2022-10-02T07:48:23.255Z,7.78
2022-10-02T07:51:34.777Z,4.15
2022-10-02T07:54:22.592Z,5.15
2022-10-02T07:56:52.810Z,7.00
2022-10-02T07:59:22.127Z,8.80
2022-10-02T08:01:50.825Z,9.82
2022-10-02T08:04:34.637Z,10.07
2022-10-02T08:07:05.481Z,12.35
2022-10-02T08:09:41.494Z,11.00
2022-10-02T08:12:40.107Z,8.00
2022-10-02T08:15:15.888Z,7.38
2022-10-02T08:17:50.592Z,4.20
2022-10-02T08:20:34.148Z,6.30
2022-10-02T08:23:09.770Z,4.20
2022-10-02T08:25:48.416Z,7.25
2022-10-02T08:28:25.603Z,2.83
2022-10-02T08:30:52.681Z,8.23
2022-10-02T08:33:22.090Z,6.78
2022-10-02T08:36:17.053Z,9.75
2022-10-02T08:38:54.479Z,5.22
2022-10-02T08:41:45.063Z,9.90
2022-10-02T08:44:36.304Z,9.68
2022-10-02T08:47:18.892Z,4.43
2022-10-02T08:50:15.079Z,3.53
2022-10-02T08:52:54.670Z,13.38
2022-10-02T08:55:59.769Z,2.90
2022-10-02T08:58:58.214Z,11.88
2022-10-02T09:01:59.923Z,13.55
2022-10-02T09:04:40.890Z,7.18
2022-10-02T09:07:47.224Z,7.25
2022-10-02T09:10:46.066Z,7.47
2022-10-02T09:13:40.272Z,10.32
2022-10-02T09:16:28.714Z,9.13
2022-10-02T09:19:19.319Z,10.80
2022-10-02T09:21:56.345Z,17.17
2022-10-02T09:24:43.783Z,14.57
2022-10-02T09:27:48.178Z,10.48
2022-10-02T09:30:33.179Z,18.30
2022-10-02T09:33:28.021Z,3.22
2022-10-02T09:36:07.046Z,11.52
2022-10-02T09:38:39.928Z,11.95
2022-10-02T09:41:23.714Z,3.95
2022-10-02T09:44:20.935Z,7.50
2022-10-02T09:47:09.516Z,8.02
2022-10-02T09:50:02.531Z,10.13
2022-10-02T09:52:32.291Z,14.63
2022-10-02T09:55:50.229Z,9.88
2022-10-02T09:58:56.647Z,18.45
2022-10-02T10:02:10.427Z,3.15
2022-10-02T10:05:05.540Z,1.17
2022-10-02T10:07:45.416Z,5.78
2022-10-02T10:10:43.533Z,3.05
2022-10-02T10:13:37.774Z,7.60
2022-10-02T10:16:29.914Z,2.00
2022-10-02T10:19:15.444Z,2.17
2022-10-02T10:21:54.447Z,5.65
2022-10-02T10:24:40.657Z,8.18
2022-10-02T10:27:30.192Z,6.43
2022-10-02T10:30:06.036Z,3.03
2022-10-02T10:32:54.249Z,3.33
2022-10-02T10:35:25.009Z,4.95
2022-10-02T10:38:34.739Z,4.93
2022-10-02T10:41:04.624Z,3.25
2022-10-02T10:44:08.381Z,3.00
2022-10-02T10:47:18.317Z,2.92
2022-10-02T10:50:24.581Z,4.13
2022-10-02T10:53:14.466Z,1.58
2022-10-02T10:55:46.274Z,0.90
2022-10-02T10:58:26.536Z,1.88
2022-10-02T11:01:08.936Z,3.00
2022-10-02T11:03:54.090Z,7.05
2022-10-02T11:06:30.898Z,4.50
2022-10-02T11:09:16.992Z,4.10
2022-10-02T11:11:57.689Z,3.25
2022-10-02T11:14:49.044Z,2.72
2022-10-02T11:17:58.396Z,1.55
2022-10-02T11:20:42.643Z,4.38
2022-10-02T11:23:24.270Z,2.00
2022-10-02T11:26:21.376Z,2.90
2022-10-02T11:29:34.795Z,3.53
2022-10-02T11:32:19.568Z,5.43
2022-10-02T11:35:06.809Z,3.17
2022-10-02T11:40:38.629Z,2.63
2022-10-02T11:43:31.823Z,6.85
2022-10-02T11:46:07.067Z,1.55
2022-10-02T11:48:56.895Z,3.25
2022-10-02T11:51:33.604Z,3.25
2022-10-02T11:54:15.877Z,2.28
2022-10-02T11:57:20.076Z,3.20
2022-10-02T11:59:49.967Z,2.03
2022-10-02T12:02:36.183Z,2.75
2022-10-02T12:05:24.850Z,4.13
2022-10-02T12:08:01.779Z,2.25
2022-10-02T12:10:37.367Z,2.40
2022-10-02T12:13:16.086Z,3.90
2022-10-02T12:16:27.617Z,2.72
2022-10-02T12:20:05.213Z,1.27
2022-10-02T12:23:06.033Z,4.82
2022-10-02T12:26:05.082Z,4.80
2022-10-02T12:29:17.229Z,2.72
2022-10-02T12:32:22.601Z,3.72
2022-10-02T12:34:59.771Z,3.28
2022-10-02T12:40:22.171Z,3.13
2022-10-02T12:43:11.156Z,1.58
2022-10-02T12:45:50.027Z,5.35
2022-10-02T12:48:26.306Z,3.92
2022-10-02T12:51:16.499Z,3.53
2022-10-02T12:54:11.047Z,3.80
2022-10-02T12:57:01.064Z,2.45
2022-10-02T13:00:05.233Z,3.67
2022-10-02T13:03:13.917Z,3.00
2022-10-02T13:05:51.380Z,2.97
2022-10-02T13:08:41.448Z,2.70
2022-10-02T13:11:27.223Z,2.00
2022-10-02T13:14:16.900Z,3.50
2022-10-02T13:16:46.830Z,4.65
2022-10-02T13:19:38.966Z,1.52
2022-10-02T13:22:17.278Z,1.00
2022-10-02T13:25:23.503Z,8.10
2022-10-02T13:28:13.778Z,1.20
2022-10-02T13:31:04.599Z,1.58
2022-10-02T13:34:05.581Z,1.85
2022-10-02T13:37:01.591Z,4.53
2022-10-02T13:39:50.317Z,2.95
2022-10-02T13:42:37.453Z,5.13
2022-10-02T13:45:13.951Z,2.70
2022-10-02T13:50:41.823Z,1.23
2022-10-02T13:55:55.552Z,3.80
2022-10-02T13:58:57.707Z,1.50
2022-10-02T14:01:30.726Z,3.38
2022-10-02T14:04:11.605Z,2.60
2022-10-02T14:07:04.563Z,4.63
2022-10-02T14:09:55.377Z,1.90
2022-10-02T14:12:50.838Z,1.52
2022-10-02T14:15:31.172Z,2.90
2022-10-02T14:18:16.437Z,2.10
2022-10-02T14:21:02.858Z,5.30
2022-10-02T14:23:44.463Z,2.28
2022-10-02T14:26:31.869Z,2.08
2022-10-02T14:29:41.534Z,6.30
2022-10-02T14:32:37.419Z,4.60
2022-10-02T14:35:34.559Z,5.00
2022-10-02T14:38:22.720Z,9.98
2022-10-02T14:40:58.170Z,2.95
2022-10-02T14:43:48.487Z,6.80
2022-10-02T14:46:36.105Z,8.57
2022-10-02T14:49:18.286Z,9.40
2022-10-02T14:52:00.026Z,9.45
2022-10-02T14:54:39.112Z,7.70
2022-10-02T14:57:19.155Z,6.25
2022-10-02T15:00:07.692Z,1.65
2022-10-02T15:02:59.854Z,6.50
2022-10-02T15:05:45.842Z,8.27
2022-10-02T15:08:20.455Z,6.80
2022-10-02T15:10:49.365Z,22.02
2022-10-02T15:13:48.957Z,14.60
2022-10-02T15:16:45.254Z,12.43
2022-10-02T15:19:20.800Z,10.63
2022-10-02T15:21:58.302Z,3.50
2022-10-02T15:24:43.944Z,11.00
2022-10-02T15:27:24.444Z,14.48
2022-10-02T15:29:57.201Z,4.55
2022-10-02T15:32:33.116Z,13.85
2022-10-02T15:35:18.551Z,12.93
2022-10-02T15:38:09.582Z,8.18
2022-10-02T15:40:47.003Z,8.82
2022-10-02T15:43:17.139Z,14.32
2022-10-02T15:46:05.658Z,4.28
2022-10-02T15:48:57.091Z,9.45
2022-10-02T15:51:45.182Z,2.80
2022-10-02T15:54:46.442Z,7.82
2022-10-02T15:57:46.100Z,6.85
2022-10-02T16:00:16.810Z,9.48
2022-10-02T16:03:22.643Z,9.70
2022-10-02T16:05:55.340Z,6.55
2022-10-02T16:08:47.516Z,5.07
2022-10-02T16:11:33.970Z,8.63
2022-10-02T16:14:19.349Z,10.07
2022-10-02T16:16:46.363Z,6.20
2022-10-02T16:19:26.677Z,8.50
2022-10-02T16:22:15.674Z,10.50
2022-10-02T16:25:07.114Z,8.10
2022-10-02T16:28:11.548Z,8.30
2022-10-02T16:30:50.776Z,12.32
2022-10-02T16:33:39.858Z,12.98
2022-10-02T16:36:15.654Z,14.82
2022-10-02T16:38:56.011Z,10.00
2022-10-02T16:41:39.670Z,17.70
2022-10-02T16:44:15.594Z,16.58
2022-10-02T16:46:52.026Z,27.08
2022-10-02T16:49:51.996Z,20.75
2022-10-02T16:53:16.750Z,29.38
2022-10-02T16:55:51.020Z,17.77
2022-10-02T16:58:27.075Z,16.58
2022-10-02T17:01:23.991Z,19.92
2022-10-02T17:04:21.064Z,15.32
2022-10-02T17:07:12.352Z,10.75
2022-10-02T17:09:49.834Z,11.88
2022-10-02T17:12:24.633Z,10.38
2022-10-02T17:14:58.589Z,7.07
2022-10-02T17:17:26.150Z,10.23
2022-10-02T17:20:23.247Z,14.82
2022-10-02T17:22:54.764Z,8.65
2022-10-02T17:25:42.933Z,14.00
2022-10-02T17:28:20.928Z,9.73
2022-10-02T17:31:15.646Z,15.90
2022-10-02T17:34:16.754Z,10.38
2022-10-02T17:37:14.056Z,13.98
2022-10-02T17:39:58.972Z,15.07
2022-10-02T17:42:52.034Z,12.07
2022-10-02T17:45:27.346Z,8.63
2022-10-02T17:48:36.255Z,15.25
2022-10-02T17:51:31.009Z,14.38
2022-10-02T17:54:15.624Z,11.00
2022-10-02T17:57:23.012Z,6.05
2022-10-02T18:00:03.528Z,6.28
2022-10-02T18:02:50.432Z,9.20
2022-10-02T18:05:25.674Z,9.90
2022-10-02T18:08:33.534Z,8.05
2022-10-02T18:11:07.810Z,14.00
2022-10-02T18:13:56.055Z,10.23
2022-10-02T18:17:03.624Z,16.60
2022-10-02T18:19:42.495Z,12.80
2022-10-02T18:22:24.896Z,18.20
2022-10-02T18:25:01.309Z,12.90
2022-10-02T18:27:43.344Z,8.32
2022-10-02T18:30:40.199Z,7.05
2022-10-02T18:33:51.705Z,8.53
2022-10-02T18:36:31.656Z,14.70
2022-10-02T18:39:20.110Z,10.35
2022-10-02T18:41:54.852Z,10.32
2022-10-02T18:44:34.318Z,13.45
2022-10-02T18:47:07.331Z,14.10
2022-10-02T18:50:08.202Z,17.77
2022-10-02T18:53:04.613Z,14.15
2022-10-02T18:55:50.333Z,15.52
2022-10-02T18:58:41.961Z,19.50
2022-10-02T19:01:20.832Z,12.43
2022-10-02T19:04:12.563Z,11.20
2022-10-02T19:06:42.014Z,10.65
2022-10-02T19:09:09.185Z,12.65
2022-10-02T19:11:47.052Z,12.13
2022-10-02T19:14:35.163Z,16.23
2022-10-02T19:17:26.459Z,16.45
2022-10-02T19:19:54.487Z,16.83
2022-10-02T19:22:29.268Z,19.90
2022-10-02T19:25:03.613Z,12.63
2022-10-02T19:27:36.042Z,12.35
2022-10-02T19:30:22.902Z,14.80
2022-10-02T19:32:51.700Z,9.63
2022-10-02T19:35:25.758Z,9.68
2022-10-02T19:37:55.206Z,10.20
2022-10-02T19:40:26.686Z,13.23
2022-10-02T19:43:05.274Z,8.85
2022-10-02T19:45:35.688Z,13.90
2022-10-02T19:48:10.245Z,12.95
2022-10-02T19:50:53.288Z,15.90
2022-10-02T19:53:25.706Z,11.65
2022-10-02T19:56:09.437Z,10.65
2022-10-02T19:58:41.580Z,11.38
2022-10-02T20:01:19.167Z,14.80
2022-10-02T20:03:51.653Z,17.60
2022-10-02T20:06:24.433Z,17.38
2022-10-02T20:08:56.500Z,14.00
2022-10-02T20:11:42.990Z,10.98
2022-10-02T20:14:29.099Z,15.63
2022-10-02T20:17:11.418Z,8.98
2022-10-02T20:19:51.971Z,18.52
2022-10-02T20:22:34.779Z,20.15
2022-10-02T20:25:26.658Z,20.23
2022-10-02T20:28:18.392Z,17.50
2022-10-02T20:30:54.319Z,13.68
2022-10-02T20:33:28.679Z,11.75
2022-10-02T20:36:09.342Z,8.00
2022-10-02T20:38:45.642Z,10.60
2022-10-02T20:41:24.482Z,10.90
2022-10-02T20:43:55.301Z,11.70
2022-10-02T20:46:35.874Z,21.02
2022-10-02T20:49:30.730Z,11.48
2022-10-02T20:52:16.148Z,6.15
2022-10-02T20:55:26.504Z,18.20
2022-10-02T20:58:11.388Z,11.32
2022-10-02T21:01:02.982Z,17.25
2022-10-02T21:04:07.106Z,35.25
2022-10-02T21:07:09.635Z,28.45
2022-10-02T21:09:45.408Z,20.17
2022-10-02T21:12:36.005Z,17.98
2022-10-02T21:15:18.316Z,26.20
2022-10-02T21:18:07.148Z,40.30
2022-10-02T21:20:51.821Z,28.02
2022-10-02T21:23:50.939Z,29.00
2022-10-02T21:26:17.976Z,44.25
2022-10-02T21:28:56.584Z,47.90
2022-10-02T21:31:44.053Z,19.10
2022-10-02T21:34:36.220Z,36.95
2022-10-02T21:37:42.566Z,58.50
2022-10-02T21:40:42.592Z,46.08
2022-10-02T21:43:47.425Z,36.63
2022-10-02T21:46:39.322Z,48.63
2022-10-02T21:49:38.132Z,41.13
2022-10-02T21:52:24.489Z,34.40
2022-10-02T21:55:40.381Z,29.50
2022-10-02T21:58:40.636Z,17.20
2022-10-02T22:01:29.776Z,32.90
2022-10-02T22:04:22.275Z,19.75
2022-10-02T22:07:24.949Z,13.25
2022-10-02T22:10:06.401Z,14.05
2022-10-02T22:12:43.738Z,9.68
2022-10-02T22:15:13.547Z,14.45
2022-10-02T22:17:58.164Z,8.07
2022-10-02T22:20:34.475Z,14.82
2022-10-02T22:23:10.618Z,8.57
2022-10-02T22:25:55.399Z,7.82
2022-10-02T22:28:53.013Z,17.23
2022-10-02T22:31:43.890Z,17.20
2022-10-02T22:34:32.071Z,11.25
2022-10-02T22:36:58.916Z,8.25
2022-10-02T22:39:26.274Z,12.13
2022-10-02T22:42:25.010Z,27.75
2022-10-02T22:45:01.765Z,39.42
2022-10-02T22:47:42.460Z,17.85
2022-10-02T22:50:24.713Z,12.43
2022-10-02T22:52:58.039Z,16.05
2022-10-02T22:55:38.814Z,23.27
2022-10-02T22:58:37.169Z,20.95
2022-10-02T23:01:17.382Z,19.02
2022-10-02T23:03:54.505Z,11.35
2022-10-02T23:09:01.194Z,17.50
2022-10-02T23:11:51.412Z,15.82
2022-10-02T23:14:37.410Z,16.75
2022-10-02T23:17:16.402Z,13.57
2022-10-02T23:19:49.232Z,13.02
2022-10-02T23:22:34.777Z,11.23
2022-10-02T23:25:23.688Z,10.77
2022-10-02T23:28:06.366Z,12.88
2022-10-02T23:30:44.001Z,11.98
2022-10-02T23:33:21.692Z,17.30
2022-10-02T23:36:20.386Z,9.23
2022-10-02T23:39:02.712Z,16.35
2022-10-02T23:41:52.770Z,15.15
2022-10-02T23:44:22.635Z,13.20
2022-10-02T23:46:49.472Z,16.25
2022-10-02T23:49:39.243Z,17.15
2022-10-02T23:52:16.809Z,14.20
2022-10-02T23:55:18.967Z,15.05
2022-10-02T23:57:58.083Z,18.52
